createdAt,value
2023-02-22T00:00:02.637Z,99294.90
2023-02-22T00:02:38.085Z,99295.57
2023-02-22T00:05:08.256Z,99297.61
2023-02-22T00:07:37.600Z,99299.45
2023-02-22T00:10:14.078Z,99301.02
2023-02-22T00:12:44.102Z,99307.02
2023-02-22T00:15:14.906Z,99309.63
2023-02-22T00:17:44.662Z,99315.17
2023-02-22T00:20:22.152Z,99321.75
2023-02-22T00:22:54.925Z,99322.45
2023-02-22T00:25:25.980Z,99325.48
2023-02-22T00:27:56.805Z,99331.42
2023-02-22T00:30:28.121Z,99341.07
2023-02-22T00:32:57.740Z,99346.29
2023-02-22T00:35:29.733Z,99350.32
2023-02-22T00:38:02.585Z,99352.98
2023-02-22T00:40:36.157Z,99358.16
2023-02-22T00:43:07.231Z,99365.95
2023-02-22T00:45:38.659Z,99370.25
2023-02-22T01:06:48.133Z,99412.27
2023-02-22T01:09:17.186Z,99417.76
2023-02-22T01:11:45.846Z,99425.02
2023-02-22T01:14:15.239Z,99425.64
2023-02-22T01:16:44.708Z,99432.70
2023-02-22T01:19:17.562Z,99438.77
2023-02-22T01:21:47.547Z,99441.52
2023-02-22T01:24:17.007Z,99446.20
2023-02-22T01:26:54.954Z,99451.44
2023-02-22T01:29:24.015Z,99455.66
2023-02-22T01:31:55.039Z,99456.13
2023-02-22T01:34:24.591Z,99465.29
2023-02-22T01:36:54.029Z,99471.98
2023-02-22T01:39:22.903Z,99474.92
2023-02-22T01:41:58.451Z,99478.73
2023-02-22T01:44:37.582Z,99485.25
2023-02-22T01:47:10.023Z,99485.33
2023-02-22T01:49:48.283Z,99490.79
2023-02-22T01:52:19.270Z,99493.10
2023-02-22T01:54:55.576Z,99498.79
2023-02-22T01:57:33.666Z,99502.94
2023-02-22T02:00:12.264Z,99507.27
2023-02-22T02:02:47.713Z,99512.75
2023-02-22T02:05:18.219Z,99517.60
2023-02-22T02:07:49.666Z,99524.73
2023-02-22T02:10:24.687Z,99526.64
2023-02-22T02:12:54.027Z,99536.20
2023-02-22T02:15:31.014Z,99539.27
2023-02-22T02:18:10.920Z,99540.68
2023-02-22T02:20:47.033Z,99546.96
2023-02-22T02:23:44.371Z,99545.23
2023-02-22T02:26:45.121Z,99554.20
2023-02-22T02:29:28.631Z,99561.83
2023-02-22T02:32:11.535Z,99563.11
2023-02-22T02:34:46.297Z,99569.64
2023-02-22T02:37:33.680Z,99579.88
2023-02-22T02:40:24.141Z,99580.23
2023-02-22T02:43:23.781Z,99582.71
2023-02-22T02:46:15.170Z,99592.78
2023-02-22T02:48:47.331Z,99594.86
2023-02-22T02:51:16.588Z,99598.38
2023-02-22T02:53:46.796Z,99602.83
2023-02-22T02:56:15.465Z,99605.15
2023-02-22T02:58:53.173Z,99610.83
2023-02-22T03:01:55.747Z,99619.42
2023-02-22T03:04:49.224Z,99623.17
2023-02-22T03:07:21.117Z,99631.39
2023-02-22T03:10:16.334Z,99634.77
2023-02-22T03:13:13.824Z,99640.02
2023-02-22T03:16:04.206Z,99647.82
2023-02-22T03:18:48.607Z,99653.17
2023-02-22T03:21:55.997Z,99655.05
2023-02-22T03:24:42.801Z,99662.15
2023-02-22T03:27:30.874Z,99666.49
2023-02-22T03:30:03.226Z,99668.38
2023-02-22T03:32:37.522Z,99674.66
2023-02-22T03:35:08.745Z,99678.28
2023-02-22T03:37:42.887Z,99683.84
2023-02-22T03:40:19.695Z,99682.58
2023-02-22T03:42:51.086Z,99691.41
2023-02-22T03:45:20.378Z,99692.74
2023-02-22T03:47:51.667Z,99698.05
2023-02-22T03:50:26.695Z,99700.63
2023-02-22T03:52:55.263Z,99709.05
2023-02-22T03:55:29.245Z,99712.27
2023-02-22T03:58:01.092Z,99714.80
2023-02-22T04:00:32.528Z,99718.35
2023-02-22T04:03:01.816Z,99723.72
2023-02-22T04:05:31.005Z,99732.04
2023-02-22T04:08:00.290Z,99735.96
2023-02-22T04:10:29.671Z,99741.66
2023-02-22T04:12:59.309Z,99746.99
2023-02-22T04:15:28.707Z,99751.71
2023-02-22T04:18:06.242Z,99753.42
2023-02-22T04:20:35.515Z,99756.23
2023-02-22T04:23:21.797Z,99757.71
2023-02-22T04:25:50.865Z,99758.59
2023-02-22T04:28:20.510Z,99763.44
2023-02-22T04:30:57.198Z,99769.73
2023-02-22T04:33:26.946Z,99777.85
2023-02-22T04:35:56.872Z,99781.35
2023-02-22T04:38:26.479Z,99787.98
2023-02-22T04:40:56.687Z,99792.91
2023-02-22T04:43:27.567Z,99788.84
2023-02-22T04:46:04.826Z,99793.62
2023-02-22T04:48:34.531Z,99798.48
2023-02-22T04:51:03.339Z,99801.61
2023-02-22T04:53:33.107Z,99802.12
2023-02-22T04:56:02.341Z,99806.04
2023-02-22T04:58:32.220Z,99814.48
2023-02-22T05:01:01.573Z,99814.85
2023-02-22T05:03:30.691Z,99821.66
2023-02-22T05:05:59.390Z,99827.07
2023-02-22T05:08:28.239Z,99832.44
2023-02-22T05:10:57.495Z,99843.20
2023-02-22T05:13:27.627Z,99845.80
2023-02-22T05:15:56.305Z,99853.61
2023-02-22T05:18:28.152Z,99859.16
2023-02-22T05:20:57.455Z,99866.35
2023-02-22T05:23:27.472Z,99870.55
2023-02-22T05:25:56.795Z,99874.19
2023-02-22T05:28:26.259Z,99880.77
2023-02-22T05:30:55.029Z,99877.19
2023-02-22T05:33:24.206Z,99883.67
2023-02-22T05:35:53.005Z,99888.20
2023-02-22T05:38:22.029Z,99893.48
2023-02-22T05:40:51.325Z,99899.43
2023-02-22T05:43:20.145Z,99902.95
2023-02-22T05:45:48.891Z,99912.25
2023-02-22T05:48:17.464Z,99919.16
2023-02-22T05:50:47.580Z,99924.38
2023-02-22T05:53:17.420Z,99928.02
2023-02-22T05:55:51.317Z,99943.09
2023-02-22T05:58:20.354Z,99941.02
2023-02-22T06:00:49.258Z,99943.98
2023-02-22T06:03:18.265Z,99950.34
2023-02-22T06:05:47.182Z,99953.20
2023-02-22T06:08:18.436Z,99953.35
2023-02-22T06:10:48.219Z,99962.68
2023-02-22T06:13:20.805Z,99968.85
2023-02-22T06:15:50.245Z,99970.11
2023-02-22T06:18:18.965Z,99980.63
2023-02-22T06:20:50.013Z,99985.20
2023-02-22T06:23:20.768Z,99987.92
2023-02-22T06:25:49.684Z,99987.88
2023-02-22T06:28:18.931Z,99990.41
2023-02-22T06:30:47.855Z,99990.92
2023-02-22T06:33:18.226Z,99995.52
2023-02-22T06:35:47.273Z,100001.94
2023-02-22T06:38:25.772Z,100008.08
2023-02-22T06:40:55.688Z,100009.97
2023-02-22T06:43:25.440Z,100011.55
2023-02-22T06:45:55.052Z,100013.52
2023-02-22T06:48:23.905Z,100011.00
2023-02-22T06:50:53.266Z,100012.72
2023-02-22T06:53:22.813Z,100011.05
2023-02-22T06:55:53.978Z,100011.48
2023-02-22T06:58:23.308Z,100014.10
2023-02-22T07:00:52.283Z,100013.89
2023-02-22T07:03:21.816Z,100020.52
2023-02-22T07:05:51.532Z,100019.81
2023-02-22T07:08:21.625Z,100021.94
2023-02-22T07:10:51.170Z,100028.42
2023-02-22T07:13:24.693Z,100037.48
2023-02-22T07:15:54.031Z,100039.67
2023-02-22T07:18:24.486Z,100044.98
2023-02-22T07:20:59.146Z,100046.83
2023-02-22T07:23:29.184Z,100046.25
2023-02-22T07:26:01.202Z,100040.59
2023-02-22T07:28:30.112Z,100044.08
2023-02-22T07:30:59.334Z,100043.39
2023-02-22T07:33:28.508Z,100047.39
2023-02-22T07:35:57.887Z,100051.02
2023-02-22T07:38:27.466Z,100056.88
2023-02-22T07:40:58.356Z,100061.73
2023-02-22T07:43:32.005Z,100070.01
2023-02-22T07:46:03.354Z,100070.86
2023-02-22T07:48:33.088Z,100071.98
2023-02-22T07:51:01.947Z,100072.28
2023-02-22T07:53:32.972Z,100073.83
2023-02-22T07:56:03.093Z,100073.29
2023-02-22T07:58:32.875Z,100073.64
2023-02-22T08:01:05.126Z,100077.39
2023-02-22T08:03:37.088Z,100079.79
2023-02-22T08:06:07.412Z,100080.33
2023-02-22T08:08:36.739Z,100082.41
2023-02-22T08:11:06.146Z,100085.23
2023-02-22T08:13:37.626Z,100088.31
2023-02-22T08:16:06.862Z,100085.02
2023-02-22T08:18:38.737Z,100085.84
2023-02-22T08:21:08.045Z,100087.89
2023-02-22T08:23:39.284Z,100096.40
2023-02-22T08:26:10.468Z,100098.13
2023-02-22T08:28:39.441Z,100100.58
2023-02-22T08:31:09.311Z,100103.79
2023-02-22T08:33:38.553Z,100105.89
2023-02-22T08:36:08.638Z,100102.02
2023-02-22T08:38:39.008Z,100104.70
2023-02-22T08:41:07.888Z,100110.05
2023-02-22T08:43:36.666Z,100109.98
2023-02-22T08:46:05.777Z,100112.42
2023-02-22T08:48:35.184Z,100115.94
2023-02-22T08:51:04.552Z,100119.25
2023-02-22T08:53:33.286Z,100124.89
2023-02-22T08:56:02.901Z,100122.58
2023-02-22T08:58:31.591Z,100124.77
2023-02-22T09:01:01.728Z,100125.33
2023-02-22T09:03:31.225Z,100126.09
2023-02-22T09:06:00.164Z,100127.25
2023-02-22T09:08:31.308Z,100133.18
2023-02-22T09:11:00.714Z,100129.19
2023-02-22T09:13:29.588Z,100130.02
2023-02-22T09:15:58.900Z,100132.97
2023-02-22T09:18:38.995Z,100136.02
2023-02-22T09:21:13.467Z,100138.60
2023-02-22T09:23:43.388Z,100135.37
2023-02-22T09:26:16.567Z,100131.60
2023-02-22T09:28:45.317Z,100130.58
2023-02-22T09:31:14.172Z,100134.40
2023-02-22T09:33:43.092Z,100134.23
2023-02-22T09:36:12.908Z,100132.14
2023-02-22T09:38:42.649Z,100129.55
2023-02-22T09:41:35.182Z,100135.13
2023-02-22T09:44:21.281Z,100134.20
2023-02-22T09:46:50.396Z,100135.60
2023-02-22T09:49:22.532Z,100131.32
2023-02-22T09:51:58.488Z,100134.42
2023-02-22T09:54:45.809Z,100134.41
2023-02-22T09:57:29.352Z,100136.13
2023-02-22T10:00:16.947Z,100136.54
2023-02-22T10:03:07.397Z,100135.53
2023-02-22T10:05:38.323Z,100134.96
2023-02-22T10:08:15.209Z,100137.27
2023-02-22T10:10:47.792Z,100131.09
2023-02-22T10:13:26.101Z,100133.04
2023-02-22T10:16:20.417Z,100138.23
2023-02-22T10:18:49.669Z,100133.95
2023-02-22T10:21:31.394Z,100139.45
2023-02-22T10:24:33.190Z,100142.75
2023-02-22T10:27:02.122Z,100146.80
2023-02-22T10:29:53.539Z,100142.45
2023-02-22T10:32:26.635Z,100141.76
2023-02-22T10:34:55.765Z,100143.50
2023-02-22T10:37:29.906Z,100144.33
2023-02-22T10:40:17.715Z,100144.21
2023-02-22T10:42:47.689Z,100140.63
2023-02-22T10:45:21.361Z,100140.83
2023-02-22T10:47:51.224Z,100142.26
2023-02-22T10:50:21.282Z,100144.87
2023-02-22T10:52:50.136Z,100143.75
2023-02-22T10:55:19.524Z,100142.98
2023-02-22T10:57:50.396Z,100141.06
2023-02-22T11:00:26.654Z,100139.75
2023-02-22T11:03:00.316Z,100137.73
2023-02-22T11:05:37.637Z,100137.73
2023-02-22T11:08:21.918Z,100137.95
2023-02-22T11:11:05.217Z,100143.37
2023-02-22T11:13:38.503Z,100145.63
2023-02-22T11:16:21.860Z,100144.45
2023-02-22T11:18:50.654Z,100143.45
2023-02-22T11:21:23.085Z,100145.86
2023-02-22T11:24:02.557Z,100151.75
2023-02-22T11:26:37.937Z,100152.82
2023-02-22T11:29:19.593Z,100154.49
2023-02-22T11:31:52.326Z,100153.52
2023-02-22T11:34:36.847Z,100151.49
2023-02-22T11:37:29.677Z,100150.52
2023-02-22T11:40:24.654Z,100157.58
2023-02-22T11:43:17.745Z,100162.54
2023-02-22T11:46:03.197Z,100165.69
2023-02-22T11:48:37.014Z,100170.05
2023-02-22T11:51:17.433Z,100171.42
2023-02-22T11:54:29.117Z,100173.27
2023-02-22T11:57:09.863Z,100173.33
2023-02-22T12:00:15.898Z,100172.15
2023-02-22T12:02:57.425Z,100173.89
2023-02-22T12:06:09.366Z,100174.17
2023-02-22T12:09:00.470Z,100176.56
2023-02-22T12:11:41.434Z,100175.98
2023-02-22T12:14:26.870Z,100177.73
2023-02-22T12:17:09.361Z,100172.77
2023-02-22T12:19:48.014Z,100169.90
2023-02-22T12:22:23.702Z,100166.64
2023-02-22T12:25:09.541Z,100169.72
2023-02-22T12:27:47.411Z,100173.91
2023-02-22T12:30:38.991Z,100173.05
2023-02-22T12:33:13.435Z,100175.80
2023-02-22T12:35:51.134Z,100182.90
2023-02-22T12:38:42.237Z,100181.40
2023-02-22T12:41:32.111Z,100178.45
2023-02-22T12:44:06.769Z,100187.13
2023-02-22T12:46:40.040Z,100189.98
2023-02-22T12:49:22.839Z,100192.52
2023-02-22T12:52:21.387Z,100193.56
2023-02-22T12:55:02.017Z,100193.43
2023-02-22T12:57:44.775Z,100199.46
2023-02-22T13:00:23.417Z,100203.89
2023-02-22T13:03:06.741Z,100204.44
2023-02-22T13:05:39.476Z,100209.14
2023-02-22T13:08:34.776Z,100208.34
2023-02-22T13:11:13.087Z,100204.13
2023-02-22T13:14:03.596Z,100206.97
2023-02-22T13:16:55.109Z,100208.45
2023-02-22T13:19:38.981Z,100211.94
2023-02-22T13:23:00.060Z,100210.28
2023-02-22T13:26:01.235Z,100217.58
2023-02-22T13:28:37.399Z,100219.27
2023-02-22T13:31:09.519Z,100223.75
2023-02-22T13:34:19.799Z,100218.96
2023-02-22T13:37:13.719Z,100220.88
2023-02-22T13:40:07.075Z,100216.79
2023-02-22T13:42:48.132Z,100214.89
2023-02-22T13:45:50.736Z,100219.29
2023-02-22T13:48:25.293Z,100217.73
2023-02-22T13:51:12.173Z,100218.92
2023-02-22T13:53:50.687Z,100218.94
2023-02-22T13:56:20.907Z,100219.64
2023-02-22T13:58:55.632Z,100222.80
2023-02-22T14:01:47.496Z,100226.00
2023-02-22T14:04:42.794Z,100231.94
2023-02-22T14:07:25.356Z,100230.97
2023-02-22T14:09:57.856Z,100235.59
2023-02-22T14:12:30.336Z,100236.20
2023-02-22T14:15:28.339Z,100243.36
2023-02-22T14:18:14.188Z,100248.38
2023-02-22T14:20:43.468Z,100248.20
2023-02-22T14:23:35.910Z,100254.06
2023-02-22T14:26:40.699Z,100258.40
2023-02-22T14:29:18.187Z,100257.91
2023-02-22T14:31:47.832Z,100255.73
2023-02-22T14:34:22.604Z,100261.20
2023-02-22T14:37:01.569Z,100264.82
2023-02-22T14:39:44.041Z,100273.15
2023-02-22T14:42:26.195Z,100269.73
2023-02-22T14:44:57.716Z,100273.04
2023-02-22T14:47:40.196Z,100269.21
2023-02-22T14:50:23.505Z,100272.46
2023-02-22T14:53:28.999Z,100274.87
2023-02-22T14:56:07.144Z,100276.71
2023-02-22T14:58:55.631Z,100270.93
2023-02-22T15:01:48.999Z,100276.01
2023-02-22T15:04:27.139Z,100277.20
2023-02-22T15:06:56.929Z,100280.65
2023-02-22T15:09:33.763Z,100284.16
2023-02-22T15:12:08.182Z,100284.48
2023-02-22T15:14:39.347Z,100290.91
2023-02-22T15:17:10.026Z,100295.53
2023-02-22T15:19:39.730Z,100295.70
2023-02-22T15:22:19.273Z,100304.55
2023-02-22T15:25:02.631Z,100309.50
2023-02-22T15:27:37.424Z,100312.88
2023-02-22T15:30:10.253Z,100311.84
2023-02-22T15:32:53.413Z,100315.53
2023-02-22T15:35:34.021Z,100317.61
2023-02-22T15:38:06.771Z,100320.64
2023-02-22T15:40:35.929Z,100323.83
2023-02-22T15:43:09.234Z,100322.80
2023-02-22T15:45:43.436Z,100328.91
2023-02-22T15:48:12.450Z,100331.80
2023-02-22T15:51:19.693Z,100333.63
2023-02-22T15:53:49.991Z,100335.83
2023-02-22T15:56:24.518Z,100335.48
2023-02-22T15:58:53.498Z,100340.47
2023-02-22T16:01:22.443Z,100341.70
2023-02-22T16:03:54.070Z,100349.02
2023-02-22T16:06:37.055Z,100351.58
2023-02-22T16:09:13.128Z,100356.84
2023-02-22T16:11:44.588Z,100360.11
2023-02-22T16:14:38.313Z,100364.82
2023-02-22T16:17:29.118Z,100368.12
2023-02-22T16:20:19.774Z,100376.70
2023-02-22T16:22:52.061Z,100380.86
2023-02-22T16:25:25.501Z,100385.52
2023-02-22T16:27:58.354Z,100390.41
2023-02-22T16:30:32.851Z,100388.27
2023-02-22T16:33:05.922Z,100393.04
2023-02-22T16:35:36.148Z,100396.48
2023-02-22T16:38:07.974Z,100400.69
2023-02-22T16:40:40.035Z,100404.81
2023-02-22T16:43:18.393Z,100407.45
2023-02-22T16:45:47.498Z,100407.88
2023-02-22T16:48:38.624Z,100411.44
2023-02-22T16:51:17.277Z,100417.17
2023-02-22T16:53:46.136Z,100418.36
2023-02-22T16:56:16.698Z,100420.52
2023-02-22T16:58:47.836Z,100419.11
2023-02-22T17:01:19.060Z,100422.30
2023-02-22T17:03:48.460Z,100424.16
2023-02-22T17:06:18.286Z,100427.02
2023-02-22T17:08:47.495Z,100426.66
2023-02-22T17:11:17.754Z,100430.59
2023-02-22T17:13:51.947Z,100432.57
2023-02-22T17:16:22.020Z,100434.96
2023-02-22T17:18:51.771Z,100433.89
2023-02-22T17:21:20.559Z,100433.05
2023-02-22T17:23:49.755Z,100436.91
2023-02-22T17:26:19.315Z,100439.69
2023-02-22T17:28:49.813Z,100440.80
2023-02-22T17:31:23.366Z,100439.86
2023-02-22T17:33:52.125Z,100444.60
2023-02-22T17:36:21.265Z,100446.05
2023-02-22T17:38:52.761Z,100446.73
2023-02-22T17:41:22.338Z,100449.98
2023-02-22T17:43:52.157Z,100459.89
2023-02-22T17:46:21.352Z,100459.56
2023-02-22T17:48:50.970Z,100464.85
2023-02-22T17:51:20.377Z,100461.73
2023-02-22T17:53:49.082Z,100466.25
2023-02-22T17:56:21.156Z,100473.13
2023-02-22T17:58:53.605Z,100472.90
2023-02-22T18:01:28.150Z,100474.95
2023-02-22T18:04:02.078Z,100480.72
2023-02-22T18:06:33.018Z,100478.41
2023-02-22T18:09:02.174Z,100480.06
2023-02-22T18:11:32.853Z,100478.73
2023-02-22T18:14:01.405Z,100479.30
2023-02-22T18:16:30.355Z,100482.45
2023-02-22T18:19:01.919Z,100485.10
2023-02-22T18:21:31.106Z,100485.84
2023-02-22T18:24:00.125Z,100487.20
2023-02-22T18:26:29.750Z,100490.08
2023-02-22T18:29:01.469Z,100493.83
2023-02-22T18:31:30.496Z,100493.63
2023-02-22T18:33:59.333Z,100492.79
2023-02-22T18:36:28.861Z,100494.77
2023-02-22T18:38:58.325Z,100495.99
2023-02-22T18:41:27.293Z,100500.29
2023-02-22T18:44:00.681Z,100497.70
2023-02-22T18:46:30.650Z,100501.73
2023-02-22T18:48:59.815Z,100503.17
2023-02-22T18:51:28.666Z,100506.33
2023-02-22T18:54:00.841Z,100507.93
2023-02-22T18:56:31.291Z,100509.06
2023-02-22T18:59:01.750Z,100515.29
2023-02-22T19:01:31.268Z,100518.34
2023-02-22T19:04:00.974Z,100517.66
2023-02-22T19:06:30.512Z,100518.52
2023-02-22T19:09:01.736Z,100522.09
2023-02-22T19:11:31.684Z,100526.76
2023-02-22T19:14:04.441Z,100531.98
2023-02-22T19:16:38.816Z,100534.32
2023-02-22T19:19:07.899Z,100538.54
2023-02-22T19:21:37.032Z,100545.38
2023-02-22T19:24:07.211Z,100550.46
2023-02-22T19:26:36.914Z,100552.83
2023-02-22T19:29:10.697Z,100554.41
2023-02-22T19:31:42.355Z,100558.31
2023-02-22T19:34:11.816Z,100559.98
2023-02-22T19:36:43.318Z,100562.71
2023-02-22T19:39:16.539Z,100565.11
2023-02-22T19:41:46.180Z,100563.68
2023-02-22T19:44:15.109Z,100566.60
2023-02-22T19:46:44.489Z,100569.00
2023-02-22T19:49:14.901Z,100569.14
2023-02-22T19:51:44.153Z,100573.36
2023-02-22T19:54:24.352Z,100572.99
2023-02-22T19:56:53.412Z,100572.48
2023-02-22T19:59:23.587Z,100574.83
2023-02-22T20:01:55.024Z,100575.50
2023-02-22T20:04:30.893Z,100578.93
2023-02-22T20:07:04.246Z,100580.63
2023-02-22T20:09:43.463Z,100583.03
2023-02-22T20:12:12.833Z,100589.18
2023-02-22T20:14:42.197Z,100589.09
2023-02-22T20:17:11.111Z,100591.45
2023-02-22T20:19:45.375Z,100594.02
2023-02-22T20:22:14.432Z,100598.61
2023-02-22T20:24:47.420Z,100604.05
2023-02-22T20:27:16.890Z,100604.23
2023-02-22T20:29:46.998Z,100609.32
2023-02-22T20:32:16.466Z,100612.39
2023-02-22T20:34:48.114Z,100615.30
2023-02-22T20:37:18.563Z,100619.29
2023-02-22T20:39:47.564Z,100618.10
2023-02-22T20:42:17.152Z,100619.37
2023-02-22T20:44:46.332Z,100621.10
2023-02-22T20:47:15.224Z,100624.69
2023-02-22T20:49:44.334Z,100625.50
2023-02-22T20:52:15.982Z,100629.74
2023-02-22T20:54:45.477Z,100630.06
2023-02-22T20:57:14.188Z,100637.02
2023-02-22T20:59:43.028Z,100640.35
2023-02-22T21:02:11.742Z,100643.38
2023-02-22T21:04:40.405Z,100642.64
2023-02-22T21:07:09.138Z,100647.86
2023-02-22T21:09:40.683Z,100648.64
2023-02-22T21:12:13.798Z,100650.46
2023-02-22T21:14:44.663Z,100658.52
2023-02-22T21:17:13.541Z,100658.15
2023-02-22T21:19:42.569Z,100661.23
2023-02-22T21:22:12.625Z,100660.89
2023-02-22T21:24:42.853Z,100664.08
2023-02-22T21:27:12.532Z,100667.83
2023-02-22T21:29:41.146Z,100671.16
2023-02-22T21:32:10.688Z,100678.65
2023-02-22T21:34:41.087Z,100681.52
2023-02-22T21:37:09.631Z,100685.68
2023-02-22T21:39:40.211Z,100686.62
2023-02-22T21:42:09.145Z,100688.09
2023-02-22T21:44:37.959Z,100693.59
2023-02-22T21:47:08.108Z,100697.77
2023-02-22T21:49:38.410Z,100699.98
2023-02-22T21:52:08.311Z,100704.36
2023-02-22T21:54:38.609Z,100710.30
2023-02-22T21:57:09.220Z,100715.37
2023-02-22T21:59:39.650Z,100717.80
2023-02-22T22:02:10.521Z,100716.58
2023-02-22T22:04:39.132Z,100716.95
2023-02-22T22:07:09.230Z,100723.21
2023-02-22T22:09:41.553Z,100721.23
2023-02-22T22:12:15.158Z,100727.88
2023-02-22T22:14:45.238Z,100729.66
2023-02-22T22:17:15.070Z,100732.64
2023-02-22T22:19:45.153Z,100732.61
2023-02-22T22:22:13.841Z,100734.68
2023-02-22T22:24:46.041Z,100731.78
2023-02-22T22:27:15.346Z,100733.38
2023-02-22T22:29:43.991Z,100741.09
2023-02-22T22:32:14.106Z,100741.12
2023-02-22T22:34:44.246Z,100743.89
2023-02-22T22:37:13.598Z,100744.95
2023-02-22T22:39:42.798Z,100745.81
2023-02-22T22:42:11.624Z,100752.17
2023-02-22T22:44:43.235Z,100750.89
2023-02-22T22:47:12.845Z,100755.50
2023-02-22T22:49:42.961Z,100757.67
2023-02-22T22:52:16.619Z,100756.25
2023-02-22T22:54:50.972Z,100758.94
2023-02-22T22:57:20.395Z,100761.92
2023-02-22T22:59:50.142Z,100759.13
2023-02-22T23:02:20.747Z,100762.38
2023-02-22T23:04:50.820Z,100763.21
2023-02-22T23:07:19.576Z,100766.50
2023-02-22T23:09:48.536Z,100767.27
2023-02-22T23:12:19.729Z,100769.60
2023-02-22T23:14:52.343Z,100774.55
2023-02-22T23:17:31.666Z,100773.07
2023-02-22T23:20:00.745Z,100780.69
2023-02-22T23:22:30.781Z,100787.00
2023-02-22T23:25:00.209Z,100790.47
2023-02-22T23:27:29.294Z,100795.52
2023-02-22T23:29:59.584Z,100799.73
2023-02-22T23:32:28.214Z,100797.86
2023-02-22T23:34:57.313Z,100799.32
2023-02-22T23:37:25.888Z,100801.70
2023-02-22T23:39:54.432Z,100809.27
2023-02-22T23:42:23.376Z,100810.17
